sensor_id;sensor_type;location;lat;lon;timestamp;temperature;humidity
63537;DHT22;49686;51.880;5.632;2024-01-30T00:00:14;7.90;99.90
63537;DHT22;49686;51.880;5.632;2024-01-30T00:02:41;7.80;99.90
63537;DHT22;49686;51.880;5.632;2024-01-30T00:05:08;7.80;99.90
63537;DHT22;49686;51.880;5.632;2024-01-30T00:07:34;7.70;99.90
63537;DHT22;49686;51.880;5.632;2024-01-30T00:10:04;7.70;99.90
63537;DHT22;49686;51.880;5.632;2024-01-30T00:12:30;7.60;99.90
63537;DHT22;49686;51.880;5.632;2024-01-30T00:14:57;7.60;99.90
63537;DHT22;49686;51.880;5.632;2024-01-30T00:17:24;7.60;99.90
63537;DHT22;49686;51.880;5.632;2024-01-30T00:19:51;7.70;99.90
63537;DHT22;49686;51.880;5.632;2024-01-30T00:22:18;7.70;99.90
63537;DHT22;49686;51.880;5.632;2024-01-30T00:24:45;7.70;99.90
63537;DHT22;49686;51.880;5.632;2024-01-30T00:27:14;7.70;99.90
63537;DHT22;49686;51.880;5.632;2024-01-30T00:29:40;7.60;99.90
63537;DHT22;49686;51.880;5.632;2024-01-30T00:32:07;7.70;99.90
63537;DHT22;49686;51.880;5.632;2024-01-30T00:34:34;7.60;99.90
63537;DHT22;49686;51.880;5.632;2024-01-30T00:37:01;7.60;99.90
63537;DHT22;49686;51.880;5.632;2024-01-30T00:39:28;7.50;99.90
63537;DHT22;49686;51.880;5.632;2024-01-30T00:41:55;7.50;99.90
63537;DHT22;49686;51.880;5.632;2024-01-30T00:44:23;7.50;99.90
63537;DHT22;49686;51.880;5.632;2024-01-30T00:46:50;7.50;99.90
63537;DHT22;49686;51.880;5.632;2024-01-30T00:49:17;7.40;99.90
63537;DHT22;49686;51.880;5.632;2024-01-30T00:51:44;7.40;99.90
63537;DHT22;49686;51.880;5.632;2024-01-30T00:54:11;7.40;99.90
63537;DHT22;49686;51.880;5.632;2024-01-30T00:56:38;7.40;99.90
63537;DHT22;49686;51.880;5.632;2024-01-30T00:59:05;7.40;99.90
63537;DHT22;49686;51.880;5.632;2024-01-30T01:01:33;7.30;99.90
63537;DHT22;49686;51.880;5.632;2024-01-30T01:04:00;7.30;99.90
63537;DHT22;49686;51.880;5.632;2024-01-30T01:06:27;7.30;99.90
63537;DHT22;49686;51.880;5.632;2024-01-30T01:08:54;7.30;99.90
63537;DHT22;49686;51.880;5.632;2024-01-30T01:11:21;7.30;99.90
63537;DHT22;49686;51.880;5.632;2024-01-30T01:13:47;7.30;99.90
63537;DHT22;49686;51.880;5.632;2024-01-30T01:16:14;7.20;99.90
63537;DHT22;49686;51.880;5.632;2024-01-30T01:18:43;7.20;99.90
63537;DHT22;49686;51.880;5.632;2024-01-30T01:21:10;7.30;99.90
63537;DHT22;49686;51.880;5.632;2024-01-30T01:23:36;7.20;99.90
63537;DHT22;49686;51.880;5.632;2024-01-30T01:26:04;7.10;99.90
63537;DHT22;49686;51.880;5.632;2024-01-30T01:28:31;7.10;99.90
63537;DHT22;49686;51.880;5.632;2024-01-30T01:30:58;7.10;99.90
63537;DHT22;49686;51.880;5.632;2024-01-30T01:33:25;7.10;99.90
63537;DHT22;49686;51.880;5.632;2024-01-30T01:35:53;7.10;99.90
63537;DHT22;49686;51.880;5.632;2024-01-30T01:38:20;7.00;99.90
63537;DHT22;49686;51.880;5.632;2024-01-30T01:40:47;7.10;99.90
63537;DHT22;49686;51.880;5.632;2024-01-30T01:43:14;7.10;99.90
63537;DHT22;49686;51.880;5.632;2024-01-30T01:45:41;7.10;99.90
63537;DHT22;49686;51.880;5.632;2024-01-30T01:48:08;7.20;99.90
63537;DHT22;49686;51.880;5.632;2024-01-30T01:50:36;7.20;99.90
63537;DHT22;49686;51.880;5.632;2024-01-30T01:53:05;7.20;99.90
63537;DHT22;49686;51.880;5.632;2024-01-30T01:55:35;7.20;99.90
63537;DHT22;49686;51.880;5.632;2024-01-30T01:58:02;7.30;99.90
63537;DHT22;49686;51.880;5.632;2024-01-30T02:00:29;7.30;99.90
63537;DHT22;49686;51.880;5.632;2024-01-30T02:02:56;7.30;99.90
63537;DHT22;49686;51.880;5.632;2024-01-30T02:05:24;7.30;99.90
63537;DHT22;49686;51.880;5.632;2024-01-30T02:07:51;7.30;99.90
63537;DHT22;49686;51.880;5.632;2024-01-30T02:10:20;7.30;99.90
63537;DHT22;49686;51.880;5.632;2024-01-30T02:12:48;7.30;99.90
63537;DHT22;49686;51.880;5.632;2024-01-30T02:15:15;7.30;99.90
63537;DHT22;49686;51.880;5.632;2024-01-30T02:17:41;7.20;99.90
63537;DHT22;49686;51.880;5.632;2024-01-30T02:20:09;7.20;99.90
63537;DHT22;49686;51.880;5.632;2024-01-30T02:22:38;7.20;99.90
63537;DHT22;49686;51.880;5.632;2024-01-30T02:25:07;7.30;99.90
63537;DHT22;49686;51.880;5.632;2024-01-30T02:27:34;7.40;99.90
63537;DHT22;49686;51.880;5.632;2024-01-30T02:30:01;7.40;99.90
63537;DHT22;49686;51.880;5.632;2024-01-30T02:32:28;7.40;99.90
63537;DHT22;49686;51.880;5.632;2024-01-30T02:34:55;7.40;99.90
63537;DHT22;49686;51.880;5.632;2024-01-30T02:37:21;7.40;99.90
63537;DHT22;49686;51.880;5.632;2024-01-30T02:39:50;7.40;99.90
63537;DHT22;49686;51.880;5.632;2024-01-30T02:42:17;7.50;99.90
63537;DHT22;49686;51.880;5.632;2024-01-30T02:44:44;7.40;99.90
63537;DHT22;49686;51.880;5.632;2024-01-30T02:47:11;7.60;99.90
63537;DHT22;49686;51.880;5.632;2024-01-30T02:49:37;7.60;99.90
63537;DHT22;49686;51.880;5.632;2024-01-30T02:52:05;7.60;99.90
63537;DHT22;49686;51.880;5.632;2024-01-30T02:54:32;7.60;99.90
63537;DHT22;49686;51.880;5.632;2024-01-30T02:57:00;7.60;99.90
63537;DHT22;49686;51.880;5.632;2024-01-30T02:59:27;7.60;99.90
63537;DHT22;49686;51.880;5.632;2024-01-30T03:01:53;7.60;99.90
63537;DHT22;49686;51.880;5.632;2024-01-30T03:04:21;7.50;99.90
63537;DHT22;49686;51.880;5.632;2024-01-30T03:06:47;7.40;99.90
63537;DHT22;49686;51.880;5.632;2024-01-30T03:09:16;7.40;99.90
63537;DHT22;49686;51.880;5.632;2024-01-30T03:11:43;7.30;99.90
63537;DHT22;49686;51.880;5.632;2024-01-30T03:14:11;7.20;99.90
63537;DHT22;49686;51.880;5.632;2024-01-30T03:16:38;7.20;99.90
63537;DHT22;49686;51.880;5.632;2024-01-30T03:19:06;7.20;99.90
63537;DHT22;49686;51.880;5.632;2024-01-30T03:21:33;7.20;99.90
63537;DHT22;49686;51.880;5.632;2024-01-30T03:24:00;7.20;99.90
63537;DHT22;49686;51.880;5.632;2024-01-30T03:26:27;7.10;99.90
63537;DHT22;49686;51.880;5.632;2024-01-30T03:28:54;7.10;99.90
63537;DHT22;49686;51.880;5.632;2024-01-30T03:31:22;7.10;99.90
63537;DHT22;49686;51.880;5.632;2024-01-30T03:33:49;7.10;99.90
63537;DHT22;49686;51.880;5.632;2024-01-30T03:36:16;7.20;99.90
63537;DHT22;49686;51.880;5.632;2024-01-30T03:38:43;7.20;99.90
63537;DHT22;49686;51.880;5.632;2024-01-30T03:41:10;7.20;99.90
63537;DHT22;49686;51.880;5.632;2024-01-30T03:43:37;7.20;99.90
63537;DHT22;49686;51.880;5.632;2024-01-30T03:46:04;7.20;99.90
63537;DHT22;49686;51.880;5.632;2024-01-30T03:48:32;7.20;99.90
63537;DHT22;49686;51.880;5.632;2024-01-30T03:50:59;7.20;99.90
63537;DHT22;49686;51.880;5.632;2024-01-30T03:53:26;7.30;99.90
63537;DHT22;49686;51.880;5.632;2024-01-30T03:55:53;7.40;99.90
63537;DHT22;49686;51.880;5.632;2024-01-30T03:58:19;7.40;99.90
63537;DHT22;49686;51.880;5.632;2024-01-30T04:00:47;7.50;99.90
63537;DHT22;49686;51.880;5.632;2024-01-30T04:03:14;7.50;99.90
63537;DHT22;49686;51.880;5.632;2024-01-30T04:05:43;7.50;99.90
63537;DHT22;49686;51.880;5.632;2024-01-30T04:08:10;7.60;99.90
63537;DHT22;49686;51.880;5.632;2024-01-30T04:10:37;7.70;99.90
63537;DHT22;49686;51.880;5.632;2024-01-30T04:13:03;7.60;99.90
63537;DHT22;49686;51.880;5.632;2024-01-30T04:15:30;7.60;99.90
63537;DHT22;49686;51.880;5.632;2024-01-30T04:17:58;7.60;99.90
63537;DHT22;49686;51.880;5.632;2024-01-30T04:20:25;7.50;99.90
63537;DHT22;49686;51.880;5.632;2024-01-30T04:22:53;7.50;99.90
63537;DHT22;49686;51.880;5.632;2024-01-30T04:25:20;7.50;99.90
63537;DHT22;49686;51.880;5.632;2024-01-30T04:27:47;7.50;99.90
63537;DHT22;49686;51.880;5.632;2024-01-30T04:30:14;7.60;99.90
63537;DHT22;49686;51.880;5.632;2024-01-30T04:32:41;7.60;99.90
63537;DHT22;49686;51.880;5.632;2024-01-30T04:35:08;7.60;99.90
63537;DHT22;49686;51.880;5.632;2024-01-30T04:37:38;7.60;99.90
63537;DHT22;49686;51.880;5.632;2024-01-30T04:40:07;7.70;99.90
63537;DHT22;49686;51.880;5.632;2024-01-30T04:42:34;7.70;99.90
63537;DHT22;49686;51.880;5.632;2024-01-30T04:45:01;7.70;99.90
63537;DHT22;49686;51.880;5.632;2024-01-30T04:47:28;7.80;99.90
63537;DHT22;49686;51.880;5.632;2024-01-30T04:49:55;7.80;99.90
63537;DHT22;49686;51.880;5.632;2024-01-30T04:52:22;7.90;99.90
63537;DHT22;49686;51.880;5.632;2024-01-30T04:54:48;7.90;99.90
63537;DHT22;49686;51.880;5.632;2024-01-30T04:57:17;7.90;99.90
63537;DHT22;49686;51.880;5.632;2024-01-30T04:59:44;7.90;99.90
63537;DHT22;49686;51.880;5.632;2024-01-30T05:02:10;7.90;99.90
63537;DHT22;49686;51.880;5.632;2024-01-30T05:04:37;8.00;99.90
63537;DHT22;49686;51.880;5.632;2024-01-30T05:07:05;8.10;99.90
63537;DHT22;49686;51.880;5.632;2024-01-30T05:09:31;8.10;99.90
63537;DHT22;49686;51.880;5.632;2024-01-30T05:11:58;8.10;99.90
63537;DHT22;49686;51.880;5.632;2024-01-30T05:14:26;8.10;99.90
63537;DHT22;49686;51.880;5.632;2024-01-30T05:16:53;8.10;99.90
63537;DHT22;49686;51.880;5.632;2024-01-30T05:19:20;8.10;99.90
63537;DHT22;49686;51.880;5.632;2024-01-30T05:21:47;8.10;99.90
63537;DHT22;49686;51.880;5.632;2024-01-30T05:24:14;8.10;99.90
63537;DHT22;49686;51.880;5.632;2024-01-30T05:26:41;8.10;99.90
63537;DHT22;49686;51.880;5.632;2024-01-30T05:29:08;8.10;99.90
63537;DHT22;49686;51.880;5.632;2024-01-30T05:31:36;8.10;99.90
63537;DHT22;49686;51.880;5.632;2024-01-30T05:34:03;8.10;99.90
63537;DHT22;49686;51.880;5.632;2024-01-30T05:36:30;8.10;99.90
63537;DHT22;49686;51.880;5.632;2024-01-30T05:38:57;8.10;99.90
63537;DHT22;49686;51.880;5.632;2024-01-30T05:41:23;8.10;99.90
63537;DHT22;49686;51.880;5.632;2024-01-30T05:43:53;8.10;99.90
63537;DHT22;49686;51.880;5.632;2024-01-30T05:46:21;8.10;99.90
63537;DHT22;49686;51.880;5.632;2024-01-30T05:48:53;8.10;99.90
63537;DHT22;49686;51.880;5.632;2024-01-30T05:51:20;8.20;99.90
63537;DHT22;49686;51.880;5.632;2024-01-30T05:53:47;8.20;99.90
63537;DHT22;49686;51.880;5.632;2024-01-30T05:56:13;8.20;99.90
63537;DHT22;49686;51.880;5.632;2024-01-30T05:58:40;8.20;99.90
63537;DHT22;49686;51.880;5.632;2024-01-30T06:01:07;8.20;99.90
63537;DHT22;49686;51.880;5.632;2024-01-30T06:03:34;8.20;99.90
63537;DHT22;49686;51.880;5.632;2024-01-30T06:06:03;8.10;99.90
63537;DHT22;49686;51.880;5.632;2024-01-30T06:08:29;8.20;99.90
63537;DHT22;49686;51.880;5.632;2024-01-30T06:10:56;8.20;99.90
63537;DHT22;49686;51.880;5.632;2024-01-30T06:13:23;8.20;99.90
63537;DHT22;49686;51.880;5.632;2024-01-30T06:15:50;8.20;99.90
63537;DHT22;49686;51.880;5.632;2024-01-30T06:18:17;8.20;99.90
63537;DHT22;49686;51.880;5.632;2024-01-30T06:20:44;8.20;99.90
63537;DHT22;49686;51.880;5.632;2024-01-30T06:23:12;8.20;99.90
63537;DHT22;49686;51.880;5.632;2024-01-30T06:25:39;8.20;99.90
63537;DHT22;49686;51.880;5.632;2024-01-30T06:28:06;8.20;99.90
63537;DHT22;49686;51.880;5.632;2024-01-30T06:30:33;8.20;99.90
63537;DHT22;49686;51.880;5.632;2024-01-30T06:33:00;8.20;99.90
63537;DHT22;49686;51.880;5.632;2024-01-30T06:35:27;8.20;99.90
63537;DHT22;49686;51.880;5.632;2024-01-30T06:37:54;8.20;99.90
63537;DHT22;49686;51.880;5.632;2024-01-30T06:40:22;8.20;99.90
63537;DHT22;49686;51.880;5.632;2024-01-30T06:42:49;8.30;99.90
63537;DHT22;49686;51.880;5.632;2024-01-30T06:45:16;8.20;99.90
63537;DHT22;49686;51.880;5.632;2024-01-30T06:47:43;8.20;99.90
63537;DHT22;49686;51.880;5.632;2024-01-30T06:50:10;8.20;99.90
63537;DHT22;49686;51.880;5.632;2024-01-30T06:52:37;8.20;99.90
63537;DHT22;49686;51.880;5.632;2024-01-30T06:55:04;8.20;99.90
63537;DHT22;49686;51.880;5.632;2024-01-30T06:57:33;8.20;99.90
63537;DHT22;49686;51.880;5.632;2024-01-30T07:00:00;8.20;99.90
63537;DHT22;49686;51.880;5.632;2024-01-30T07:02:27;8.30;99.90
63537;DHT22;49686;51.880;5.632;2024-01-30T07:04:54;8.30;99.90
63537;DHT22;49686;51.880;5.632;2024-01-30T07:07:20;8.30;99.90
63537;DHT22;49686;51.880;5.632;2024-01-30T07:09:47;8.30;99.90
63537;DHT22;49686;51.880;5.632;2024-01-30T07:12:14;8.40;99.90
63537;DHT22;49686;51.880;5.632;2024-01-30T07:14:42;8.40;99.90
63537;DHT22;49686;51.880;5.632;2024-01-30T07:17:09;8.40;99.90
63537;DHT22;49686;51.880;5.632;2024-01-30T07:19:36;8.40;99.90
63537;DHT22;49686;51.880;5.632;2024-01-30T07:22:03;8.40;99.90
63537;DHT22;49686;51.880;5.632;2024-01-30T07:24:30;8.50;99.90
63537;DHT22;49686;51.880;5.632;2024-01-30T07:26:57;8.40;99.90
63537;DHT22;49686;51.880;5.632;2024-01-30T07:29:24;8.40;99.90
63537;DHT22;49686;51.880;5.632;2024-01-30T07:31:52;8.50;99.90
63537;DHT22;49686;51.880;5.632;2024-01-30T07:34:19;8.50;99.90
63537;DHT22;49686;51.880;5.632;2024-01-30T07:36:46;8.50;99.90
63537;DHT22;49686;51.880;5.632;2024-01-30T07:39:13;8.60;99.90
63537;DHT22;49686;51.880;5.632;2024-01-30T07:41:40;8.60;99.90
63537;DHT22;49686;51.880;5.632;2024-01-30T07:44:07;8.60;99.90
63537;DHT22;49686;51.880;5.632;2024-01-30T07:46:34;8.60;99.90
63537;DHT22;49686;51.880;5.632;2024-01-30T07:49:02;8.70;99.90
63537;DHT22;49686;51.880;5.632;2024-01-30T07:51:29;8.80;99.90
63537;DHT22;49686;51.880;5.632;2024-01-30T07:53:59;8.90;99.90
63537;DHT22;49686;51.880;5.632;2024-01-30T07:56:26;9.00;99.90
63537;DHT22;49686;51.880;5.632;2024-01-30T07:58:53;9.10;99.90
63537;DHT22;49686;51.880;5.632;2024-01-30T08:01:20;9.10;99.90
63537;DHT22;49686;51.880;5.632;2024-01-30T08:03:47;9.20;99.90
63537;DHT22;49686;51.880;5.632;2024-01-30T08:06:15;9.30;99.90
63537;DHT22;49686;51.880;5.632;2024-01-30T08:08:42;9.40;99.90
63537;DHT22;49686;51.880;5.632;2024-01-30T08:11:09;9.40;99.90
63537;DHT22;49686;51.880;5.632;2024-01-30T08:13:36;9.50;99.90
63537;DHT22;49686;51.880;5.632;2024-01-30T08:16:03;9.60;99.90
63537;DHT22;49686;51.880;5.632;2024-01-30T08:18:30;9.70;99.90
63537;DHT22;49686;51.880;5.632;2024-01-30T08:20:57;9.70;99.90
63537;DHT22;49686;51.880;5.632;2024-01-30T08:23:25;9.80;99.90
63537;DHT22;49686;51.880;5.632;2024-01-30T08:25:52;9.90;99.90
63537;DHT22;49686;51.880;5.632;2024-01-30T08:28:19;9.90;99.90
63537;DHT22;49686;51.880;5.632;2024-01-30T08:30:47;10.00;99.90
63537;DHT22;49686;51.880;5.632;2024-01-30T08:33:14;10.00;99.90
63537;DHT22;49686;51.880;5.632;2024-01-30T08:35:41;10.10;99.90
63537;DHT22;49686;51.880;5.632;2024-01-30T08:38:08;10.10;99.90
63537;DHT22;49686;51.880;5.632;2024-01-30T08:40:36;10.10;99.90
63537;DHT22;49686;51.880;5.632;2024-01-30T08:43:03;10.10;99.90
63537;DHT22;49686;51.880;5.632;2024-01-30T08:45:30;10.20;99.90
63537;DHT22;49686;51.880;5.632;2024-01-30T08:47:57;10.20;99.90
63537;DHT22;49686;51.880;5.632;2024-01-30T08:50:24;10.30;99.90
63537;DHT22;49686;51.880;5.632;2024-01-30T08:52:51;10.30;99.90
63537;DHT22;49686;51.880;5.632;2024-01-30T08:55:18;10.30;99.90
63537;DHT22;49686;51.880;5.632;2024-01-30T08:57:46;10.40;99.90
63537;DHT22;49686;51.880;5.632;2024-01-30T09:00:14;10.40;99.90
63537;DHT22;49686;51.880;5.632;2024-01-30T09:02:41;10.40;99.90
63537;DHT22;49686;51.880;5.632;2024-01-30T09:05:08;10.50;99.90
63537;DHT22;49686;51.880;5.632;2024-01-30T09:07:35;10.50;99.90
63537;DHT22;49686;51.880;5.632;2024-01-30T09:10:03;10.60;99.90
63537;DHT22;49686;51.880;5.632;2024-01-30T09:12:30;10.70;99.90
63537;DHT22;49686;51.880;5.632;2024-01-30T09:14:58;10.70;99.90
63537;DHT22;49686;51.880;5.632;2024-01-30T09:17:25;10.70;99.90
63537;DHT22;49686;51.880;5.632;2024-01-30T09:19:52;10.80;99.90
63537;DHT22;49686;51.880;5.632;2024-01-30T09:22:19;10.80;99.90
63537;DHT22;49686;51.880;5.632;2024-01-30T09:24:46;10.80;99.90
63537;DHT22;49686;51.880;5.632;2024-01-30T09:27:13;10.80;99.90
63537;DHT22;49686;51.880;5.632;2024-01-30T09:29:39;10.80;99.90
63537;DHT22;49686;51.880;5.632;2024-01-30T09:32:08;10.90;99.90
63537;DHT22;49686;51.880;5.632;2024-01-30T09:34:35;10.90;99.90
63537;DHT22;49686;51.880;5.632;2024-01-30T09:37:03;10.90;99.90
63537;DHT22;49686;51.880;5.632;2024-01-30T09:39:30;10.90;99.90
63537;DHT22;49686;51.880;5.632;2024-01-30T09:42:05;10.90;99.90
63537;DHT22;49686;51.880;5.632;2024-01-30T09:44:35;10.90;99.90
63537;DHT22;49686;51.880;5.632;2024-01-30T09:47:05;10.90;99.90
63537;DHT22;49686;51.880;5.632;2024-01-30T09:49:34;11.00;99.90
63537;DHT22;49686;51.880;5.632;2024-01-30T09:52:02;11.00;99.90
63537;DHT22;49686;51.880;5.632;2024-01-30T09:54:30;11.10;99.90
63537;DHT22;49686;51.880;5.632;2024-01-30T09:57:02;11.10;99.90
63537;DHT22;49686;51.880;5.632;2024-01-30T09:59:29;11.10;99.90
63537;DHT22;49686;51.880;5.632;2024-01-30T10:01:56;11.10;99.90
63537;DHT22;49686;51.880;5.632;2024-01-30T10:04:24;11.20;99.90
63537;DHT22;49686;51.880;5.632;2024-01-30T10:06:52;11.20;99.90
63537;DHT22;49686;51.880;5.632;2024-01-30T10:09:19;11.20;99.90
63537;DHT22;49686;51.880;5.632;2024-01-30T10:11:46;11.30;99.90
63537;DHT22;49686;51.880;5.632;2024-01-30T10:14:13;11.30;99.90
63537;DHT22;49686;51.880;5.632;2024-01-30T10:16:40;11.40;99.90
63537;DHT22;49686;51.880;5.632;2024-01-30T10:19:07;11.50;99.90
63537;DHT22;49686;51.880;5.632;2024-01-30T10:21:35;11.60;99.90
63537;DHT22;49686;51.880;5.632;2024-01-30T10:24:03;11.60;99.90
63537;DHT22;49686;51.880;5.632;2024-01-30T10:26:30;11.70;99.90
63537;DHT22;49686;51.880;5.632;2024-01-30T10:28:57;11.90;99.90
63537;DHT22;49686;51.880;5.632;2024-01-30T10:31:24;11.90;99.90
63537;DHT22;49686;51.880;5.632;2024-01-30T10:33:51;11.90;99.90
63537;DHT22;49686;51.880;5.632;2024-01-30T10:36:29;11.90;99.90
63537;DHT22;49686;51.880;5.632;2024-01-30T10:38:59;11.90;99.90
63537;DHT22;49686;51.880;5.632;2024-01-30T10:41:27;11.80;99.90
63537;DHT22;49686;51.880;5.632;2024-01-30T10:44:02;11.90;99.90
63537;DHT22;49686;51.880;5.632;2024-01-30T10:46:31;11.90;99.90
63537;DHT22;49686;51.880;5.632;2024-01-30T10:48:59;11.80;99.90
63537;DHT22;49686;51.880;5.632;2024-01-30T10:51:26;11.80;99.90
63537;DHT22;49686;51.880;5.632;2024-01-30T10:53:55;11.80;99.90
63537;DHT22;49686;51.880;5.632;2024-01-30T10:56:23;11.80;99.90
63537;DHT22;49686;51.880;5.632;2024-01-30T10:58:52;11.90;99.90
63537;DHT22;49686;51.880;5.632;2024-01-30T11:01:20;12.00;99.90
63537;DHT22;49686;51.880;5.632;2024-01-30T11:03:47;12.00;99.90
63537;DHT22;49686;51.880;5.632;2024-01-30T11:06:14;12.10;99.90
63537;DHT22;49686;51.880;5.632;2024-01-30T11:08:41;12.10;99.90
63537;DHT22;49686;51.880;5.632;2024-01-30T11:11:09;12.10;99.90
63537;DHT22;49686;51.880;5.632;2024-01-30T11:13:36;12.10;99.90
63537;DHT22;49686;51.880;5.632;2024-01-30T11:16:05;12.10;99.90
63537;DHT22;49686;51.880;5.632;2024-01-30T11:18:32;12.20;99.90
63537;DHT22;49686;51.880;5.632;2024-01-30T11:21:00;12.20;99.90
63537;DHT22;49686;51.880;5.632;2024-01-30T11:23:27;12.10;99.90
63537;DHT22;49686;51.880;5.632;2024-01-30T11:25:55;12.00;99.90
63537;DHT22;49686;51.880;5.632;2024-01-30T11:28:22;12.00;99.90
63537;DHT22;49686;51.880;5.632;2024-01-30T11:30:49;12.10;99.90
63537;DHT22;49686;51.880;5.632;2024-01-30T11:33:27;12.10;99.90
63537;DHT22;49686;51.880;5.632;2024-01-30T11:35:59;12.20;99.90
63537;DHT22;49686;51.880;5.632;2024-01-30T11:38:27;12.20;99.90
63537;DHT22;49686;51.880;5.632;2024-01-30T11:40:55;12.20;99.90
63537;DHT22;49686;51.880;5.632;2024-01-30T11:43:22;12.20;99.90
63537;DHT22;49686;51.880;5.632;2024-01-30T11:45:49;12.40;99.90
63537;DHT22;49686;51.880;5.632;2024-01-30T11:48:17;12.40;99.90
63537;DHT22;49686;51.880;5.632;2024-01-30T11:50:44;12.40;99.90
63537;DHT22;49686;51.880;5.632;2024-01-30T11:53:11;12.30;99.90
63537;DHT22;49686;51.880;5.632;2024-01-30T11:55:38;12.30;99.90
63537;DHT22;49686;51.880;5.632;2024-01-30T11:58:05;12.30;99.90
63537;DHT22;49686;51.880;5.632;2024-01-30T12:00:33;12.30;99.90
63537;DHT22;49686;51.880;5.632;2024-01-30T12:03:00;12.20;99.90
63537;DHT22;49686;51.880;5.632;2024-01-30T12:05:28;12.30;99.90
63537;DHT22;49686;51.880;5.632;2024-01-30T12:07:56;12.20;99.90
63537;DHT22;49686;51.880;5.632;2024-01-30T12:10:23;12.30;99.90
63537;DHT22;49686;51.880;5.632;2024-01-30T12:12:50;12.30;99.90
63537;DHT22;49686;51.880;5.632;2024-01-30T12:15:21;12.30;99.90
63537;DHT22;49686;51.880;5.632;2024-01-30T12:17:48;12.30;99.90
63537;DHT22;49686;51.880;5.632;2024-01-30T12:20:17;12.60;99.90
63537;DHT22;49686;51.880;5.632;2024-01-30T12:22:48;12.90;99.90
63537;DHT22;49686;51.880;5.632;2024-01-30T12:25:15;12.90;99.90
63537;DHT22;49686;51.880;5.632;2024-01-30T12:27:44;12.90;99.90
63537;DHT22;49686;51.880;5.632;2024-01-30T12:30:12;12.70;99.90
63537;DHT22;49686;51.880;5.632;2024-01-30T12:32:40;12.60;99.90
63537;DHT22;49686;51.880;5.632;2024-01-30T12:35:08;12.20;99.90
63537;DHT22;49686;51.880;5.632;2024-01-30T12:37:35;11.90;99.90
63537;DHT22;49686;51.880;5.632;2024-01-30T12:40:05;11.80;99.90
63537;DHT22;49686;51.880;5.632;2024-01-30T12:42:32;11.60;99.90
63537;DHT22;49686;51.880;5.632;2024-01-30T12:44:59;11.60;99.90
63537;DHT22;49686;51.880;5.632;2024-01-30T12:47:26;11.70;99.90
63537;DHT22;49686;51.880;5.632;2024-01-30T12:49:53;11.90;99.90
63537;DHT22;49686;51.880;5.632;2024-01-30T12:52:21;11.80;99.90
63537;DHT22;49686;51.880;5.632;2024-01-30T12:54:49;11.80;99.90
63537;DHT22;49686;51.880;5.632;2024-01-30T12:57:18;11.80;99.90
63537;DHT22;49686;51.880;5.632;2024-01-30T12:59:46;11.70;99.90
63537;DHT22;49686;51.880;5.632;2024-01-30T13:02:13;11.60;99.90
63537;DHT22;49686;51.880;5.632;2024-01-30T13:04:40;11.60;99.90
63537;DHT22;49686;51.880;5.632;2024-01-30T13:07:07;11.60;99.90
63537;DHT22;49686;51.880;5.632;2024-01-30T13:09:34;11.40;99.90
63537;DHT22;49686;51.880;5.632;2024-01-30T13:12:01;11.40;99.90
63537;DHT22;49686;51.880;5.632;2024-01-30T13:14:29;11.40;99.90
63537;DHT22;49686;51.880;5.632;2024-01-30T13:16:56;11.20;99.90
63537;DHT22;49686;51.880;5.632;2024-01-30T13:19:23;11.20;99.90
63537;DHT22;49686;51.880;5.632;2024-01-30T13:21:50;11.20;99.90
63537;DHT22;49686;51.880;5.632;2024-01-30T13:24:17;11.20;99.90
63537;DHT22;49686;51.880;5.632;2024-01-30T13:26:44;11.00;99.90
63537;DHT22;49686;51.880;5.632;2024-01-30T13:29:11;10.90;99.90
63537;DHT22;49686;51.880;5.632;2024-01-30T13:31:40;10.90;99.90
63537;DHT22;49686;51.880;5.632;2024-01-30T13:34:07;10.80;99.90
63537;DHT22;49686;51.880;5.632;2024-01-30T13:36:35;10.60;99.90
63537;DHT22;49686;51.880;5.632;2024-01-30T13:39:02;10.40;99.90
63537;DHT22;49686;51.880;5.632;2024-01-30T13:41:29;10.30;99.90
63537;DHT22;49686;51.880;5.632;2024-01-30T13:43:55;10.10;99.90
63537;DHT22;49686;51.880;5.632;2024-01-30T13:46:22;10.00;99.90
63537;DHT22;49686;51.880;5.632;2024-01-30T13:48:51;9.90;99.90
63537;DHT22;49686;51.880;5.632;2024-01-30T13:51:18;9.90;99.90
63537;DHT22;49686;51.880;5.632;2024-01-30T13:53:45;9.80;99.90
63537;DHT22;49686;51.880;5.632;2024-01-30T13:56:11;9.70;99.90
63537;DHT22;49686;51.880;5.632;2024-01-30T13:58:39;9.70;99.90
63537;DHT22;49686;51.880;5.632;2024-01-30T14:01:06;9.70;99.90
63537;DHT22;49686;51.880;5.632;2024-01-30T14:03:33;9.60;99.90
63537;DHT22;49686;51.880;5.632;2024-01-30T14:06:01;9.60;99.90
63537;DHT22;49686;51.880;5.632;2024-01-30T14:08:28;9.60;99.90
63537;DHT22;49686;51.880;5.632;2024-01-30T14:10:55;9.60;99.90
63537;DHT22;49686;51.880;5.632;2024-01-30T14:13:22;9.60;99.90
63537;DHT22;49686;51.880;5.632;2024-01-30T14:15:49;9.60;99.90
63537;DHT22;49686;51.880;5.632;2024-01-30T14:18:16;9.60;99.90
63537;DHT22;49686;51.880;5.632;2024-01-30T14:20:42;9.60;99.90
63537;DHT22;49686;51.880;5.632;2024-01-30T14:23:11;9.50;99.90
63537;DHT22;49686;51.880;5.632;2024-01-30T14:25:38;9.60;99.90
63537;DHT22;49686;51.880;5.632;2024-01-30T14:28:05;9.60;99.90
63537;DHT22;49686;51.880;5.632;2024-01-30T14:30:33;9.60;99.90
63537;DHT22;49686;51.880;5.632;2024-01-30T14:33:00;9.60;99.90
63537;DHT22;49686;51.880;5.632;2024-01-30T14:35:27;9.60;99.90
63537;DHT22;49686;51.880;5.632;2024-01-30T14:37:54;9.60;99.90
63537;DHT22;49686;51.880;5.632;2024-01-30T14:40:22;9.70;99.90
63537;DHT22;49686;51.880;5.632;2024-01-30T14:42:49;9.80;99.90
63537;DHT22;49686;51.880;5.632;2024-01-30T14:45:16;9.70;99.90
63537;DHT22;49686;51.880;5.632;2024-01-30T14:47:43;9.60;99.90
63537;DHT22;49686;51.880;5.632;2024-01-30T14:50:10;9.60;99.90
63537;DHT22;49686;51.880;5.632;2024-01-30T14:52:37;9.60;99.90
63537;DHT22;49686;51.880;5.632;2024-01-30T14:55:05;9.60;99.90
63537;DHT22;49686;51.880;5.632;2024-01-30T14:57:33;9.60;99.90
63537;DHT22;49686;51.880;5.632;2024-01-30T15:00:01;9.60;99.90
63537;DHT22;49686;51.880;5.632;2024-01-30T15:02:27;9.60;99.90
63537;DHT22;49686;51.880;5.632;2024-01-30T15:04:54;9.50;99.90
63537;DHT22;49686;51.880;5.632;2024-01-30T15:07:21;9.50;99.90
63537;DHT22;49686;51.880;5.632;2024-01-30T15:10:02;9.50;99.90
63537;DHT22;49686;51.880;5.632;2024-01-30T15:12:29;9.40;99.90
63537;DHT22;49686;51.880;5.632;2024-01-30T15:14:57;9.40;99.90
63537;DHT22;49686;51.880;5.632;2024-01-30T15:17:24;9.40;99.90
63537;DHT22;49686;51.880;5.632;2024-01-30T15:19:51;9.30;99.90
63537;DHT22;49686;51.880;5.632;2024-01-30T15:22:18;9.40;99.90
63537;DHT22;49686;51.880;5.632;2024-01-30T15:24:45;9.40;99.90
63537;DHT22;49686;51.880;5.632;2024-01-30T15:27:12;9.40;99.90
63537;DHT22;49686;51.880;5.632;2024-01-30T15:29:39;9.30;99.90
63537;DHT22;49686;51.880;5.632;2024-01-30T15:32:07;9.30;99.90
63537;DHT22;49686;51.880;5.632;2024-01-30T15:34:34;9.30;99.90
63537;DHT22;49686;51.880;5.632;2024-01-30T15:37:02;9.20;99.90
63537;DHT22;49686;51.880;5.632;2024-01-30T15:39:29;9.10;99.90